createdAt,value
2023-01-05T00:01:43.730Z,11.43
2023-01-05T00:04:10.720Z,11.46
2023-01-05T00:06:37.922Z,11.41
2023-01-05T00:09:05.922Z,9.99
2023-01-05T00:11:59.524Z,11.29
2023-01-05T00:14:48.187Z,11.39
2023-01-05T00:17:36.806Z,12.10
2023-01-05T00:20:25.922Z,10.90
2023-01-05T00:22:54.293Z,11.80
2023-01-05T00:25:22.518Z,11.08
2023-01-05T00:27:51.930Z,11.37
2023-01-05T00:30:37.747Z,10.92
2023-01-05T00:33:04.606Z,11.37
2023-01-05T00:35:31.479Z,11.34
2023-01-05T00:37:58.388Z,11.06
2023-01-05T00:40:25.266Z,10.88
2023-01-05T00:42:52.166Z,11.25
2023-01-05T00:45:19.619Z,11.56
2023-01-05T00:47:48.827Z,11.26
2023-01-05T00:50:17.277Z,11.11
2023-01-05T00:52:44.666Z,11.13
2023-01-05T00:55:11.637Z,11.02
2023-01-05T00:57:39.088Z,11.02
2023-01-05T01:00:11.391Z,10.04
2023-01-05T01:02:38.258Z,9.13
2023-01-05T01:05:05.331Z,9.00
2023-01-05T01:07:32.232Z,8.78
2023-01-05T01:09:59.122Z,8.99
2023-01-05T01:12:25.975Z,9.08
2023-01-05T01:14:52.625Z,9.50
2023-01-05T01:17:19.526Z,9.85
2023-01-05T01:19:47.415Z,10.02
2023-01-05T01:22:14.902Z,10.68
2023-01-05T01:24:41.916Z,10.95
2023-01-05T01:27:08.773Z,11.02
2023-01-05T01:29:35.723Z,11.64
2023-01-05T01:32:02.642Z,11.71
2023-01-05T01:34:29.650Z,11.74
2023-01-05T01:36:56.917Z,11.46
2023-01-05T01:39:23.906Z,11.32
2023-01-05T01:42:04.937Z,10.17
2023-01-05T01:44:51.420Z,9.91
2023-01-05T01:47:28.667Z,9.93
2023-01-05T01:49:56.178Z,10.38
2023-01-05T01:52:24.415Z,10.69
2023-01-05T01:54:52.067Z,10.61
2023-01-05T01:57:19.237Z,10.71
2023-01-05T01:59:46.268Z,10.02
2023-01-05T02:02:13.633Z,9.43
2023-01-05T02:04:40.953Z,9.43
2023-01-05T02:07:08.984Z,9.41
2023-01-05T02:09:35.880Z,9.35
2023-01-05T02:12:53.147Z,9.40
2023-01-05T02:15:36.323Z,9.70
2023-01-05T02:18:31.707Z,9.55
2023-01-05T02:21:16.754Z,9.26
2023-01-05T02:24:13.296Z,10.16
2023-01-05T02:27:03.369Z,10.60
2023-01-05T02:29:40.282Z,10.90
2023-01-05T02:32:07.073Z,10.73
2023-01-05T02:34:36.471Z,10.58
2023-01-05T02:37:15.470Z,10.30
2023-01-05T02:39:57.961Z,9.50
2023-01-05T02:42:26.458Z,10.11
2023-01-05T02:44:53.335Z,9.48
2023-01-05T02:47:26.176Z,9.64
2023-01-05T02:49:57.810Z,9.33
2023-01-05T02:52:25.558Z,9.15
2023-01-05T02:54:59.022Z,9.15
2023-01-05T02:57:50.412Z,9.39
2023-01-05T03:00:29.682Z,9.35
2023-01-05T03:03:02.279Z,9.42
2023-01-05T03:05:33.704Z,9.37
2023-01-05T03:08:11.245Z,9.46
2023-01-05T03:11:12.714Z,9.69
2023-01-05T03:13:41.951Z,9.11
2023-01-05T03:16:11.026Z,8.93
2023-01-05T03:18:57.078Z,9.04
2023-01-05T03:21:27.645Z,8.88
2023-01-05T03:24:15.415Z,8.97
2023-01-05T03:27:01.538Z,8.72
2023-01-05T03:29:47.072Z,8.74
2023-01-05T03:32:41.331Z,8.86
2023-01-05T03:35:34.753Z,8.76
2023-01-05T03:38:25.949Z,8.91
2023-01-05T03:40:54.456Z,9.08
2023-01-05T03:43:21.812Z,8.88
2023-01-05T03:45:55.339Z,8.60
2023-01-05T03:48:23.416Z,8.53
2023-01-05T03:50:50.380Z,8.54
2023-01-05T03:53:17.398Z,8.57
2023-01-05T03:55:44.273Z,8.46
2023-01-05T03:58:10.900Z,8.21
2023-01-05T04:00:39.748Z,8.40
2023-01-05T04:03:06.819Z,8.38
2023-01-05T04:05:33.764Z,8.05
2023-01-05T04:08:00.483Z,8.01
2023-01-05T04:10:28.389Z,8.35
2023-01-05T04:12:55.300Z,8.49
2023-01-05T04:15:22.129Z,8.48
2023-01-05T04:17:48.798Z,8.78
2023-01-05T04:20:17.925Z,8.85
2023-01-05T04:22:44.785Z,8.74
2023-01-05T04:25:11.468Z,9.10
2023-01-05T04:27:38.324Z,9.63
2023-01-05T04:30:05.977Z,9.48
2023-01-05T04:32:32.907Z,9.75
2023-01-05T04:35:03.860Z,9.68
2023-01-05T04:37:40.089Z,9.66
2023-01-05T04:40:09.375Z,9.96
2023-01-05T04:42:36.198Z,10.87
2023-01-05T04:45:02.860Z,9.86
2023-01-05T04:47:29.712Z,9.86
2023-01-05T04:50:07.037Z,9.86
2023-01-05T04:52:33.902Z,10.12
2023-01-05T04:55:00.797Z,10.57
2023-01-05T04:57:27.826Z,10.68
2023-01-05T04:59:57.778Z,10.61
2023-01-05T05:02:24.763Z,11.15
2023-01-05T05:04:51.748Z,10.81
2023-01-05T05:07:18.750Z,11.46
2023-01-05T05:09:52.579Z,10.64
2023-01-05T05:12:20.777Z,10.65
2023-01-05T05:14:48.336Z,11.66
2023-01-05T05:17:16.683Z,11.44
2023-01-05T05:19:43.842Z,11.45
2023-01-05T05:22:11.405Z,12.08
2023-01-05T05:24:38.280Z,12.74
2023-01-05T05:27:05.117Z,12.22
2023-01-05T05:29:31.967Z,12.69
2023-01-05T05:31:58.800Z,12.50
2023-01-05T05:34:25.640Z,12.22
2023-01-05T05:36:52.528Z,12.27
2023-01-05T05:39:19.510Z,12.54
2023-01-05T05:41:49.629Z,11.92
2023-01-05T05:44:16.475Z,11.29
2023-01-05T05:46:43.452Z,12.15
2023-01-05T05:49:10.557Z,11.55
2023-01-05T05:51:37.469Z,11.96
2023-01-05T05:54:04.503Z,12.07
2023-01-05T05:56:31.400Z,11.56
2023-01-05T05:59:01.631Z,11.42
2023-01-05T06:01:29.396Z,11.22
2023-01-05T06:03:56.452Z,11.73
2023-01-05T06:06:23.315Z,12.29
2023-01-05T06:08:51.189Z,12.33
2023-01-05T06:11:19.070Z,11.74
2023-01-05T06:13:46.133Z,12.20
2023-01-05T06:16:13.005Z,11.76
2023-01-05T06:18:39.870Z,10.98
2023-01-05T06:21:06.895Z,11.08
2023-01-05T06:23:33.764Z,11.11
2023-01-05T06:26:00.447Z,11.44
2023-01-05T06:28:27.343Z,11.48
2023-01-05T06:30:55.210Z,11.35
2023-01-05T06:33:22.084Z,11.76
2023-01-05T06:35:48.956Z,11.67
2023-01-05T06:38:16.698Z,11.60
2023-01-05T06:40:44.807Z,11.53
2023-01-05T06:43:12.436Z,11.32
2023-01-05T06:45:39.309Z,10.85
2023-01-05T06:48:06.327Z,10.08
2023-01-05T06:50:36.313Z,10.36
2023-01-05T06:53:03.328Z,10.60
2023-01-05T06:55:30.483Z,10.55
2023-01-05T06:58:00.951Z,10.64
2023-01-05T07:00:29.026Z,10.54
2023-01-05T07:02:55.967Z,10.24
2023-01-05T07:05:24.757Z,10.22
2023-01-05T07:07:51.878Z,10.53
2023-01-05T07:10:18.952Z,10.25
2023-01-05T07:12:45.858Z,10.48
2023-01-05T07:15:12.830Z,10.68
2023-01-05T07:17:39.730Z,10.45
2023-01-05T07:20:08.097Z,10.18
2023-01-05T07:22:35.159Z,9.57
2023-01-05T07:25:02.121Z,9.96
2023-01-05T07:27:28.975Z,9.87
2023-01-05T07:29:55.711Z,9.77
2023-01-05T07:32:22.572Z,9.32
2023-01-05T07:34:55.240Z,9.26
2023-01-05T07:37:24.990Z,9.27
2023-01-05T07:39:52.453Z,9.57
2023-01-05T07:42:19.476Z,9.09
2023-01-05T07:44:46.299Z,9.26
2023-01-05T07:47:12.940Z,9.34
2023-01-05T07:49:39.796Z,9.66
2023-01-05T07:52:06.484Z,9.78
2023-01-05T07:54:33.350Z,10.04
2023-01-05T07:57:00.504Z,9.84
2023-01-05T07:59:27.468Z,9.48
2023-01-05T08:01:54.410Z,9.66
2023-01-05T08:04:21.411Z,9.44
2023-01-05T08:06:48.332Z,9.55
2023-01-05T08:09:33.488Z,9.74
2023-01-05T08:12:00.340Z,10.01
2023-01-05T08:14:27.029Z,10.91
2023-01-05T08:16:54.029Z,10.69
2023-01-05T08:19:20.955Z,10.39
2023-01-05T08:21:47.658Z,10.03
2023-01-05T08:24:14.538Z,10.32
2023-01-05T08:26:41.485Z,10.49
2023-01-05T08:29:08.512Z,10.34
2023-01-05T08:31:37.762Z,10.06
2023-01-05T08:34:05.365Z,9.32
2023-01-05T08:36:33.108Z,9.57
2023-01-05T08:39:01.801Z,9.60
2023-01-05T08:41:31.952Z,9.61
2023-01-05T08:44:04.115Z,9.95
2023-01-05T08:46:33.517Z,9.53
2023-01-05T08:49:02.023Z,9.77
2023-01-05T08:51:29.619Z,11.33
2023-01-05T08:53:56.582Z,11.57
2023-01-05T08:56:28.793Z,10.81
2023-01-05T08:58:59.416Z,10.12
2023-01-05T09:01:27.025Z,9.79
2023-01-05T09:03:54.075Z,10.26
2023-01-05T09:06:20.968Z,10.59
2023-01-05T09:08:48.772Z,10.90
2023-01-05T09:11:26.040Z,11.07
2023-01-05T09:13:59.858Z,11.33
2023-01-05T09:19:16.691Z,12.00
2023-01-05T09:21:44.863Z,11.50
2023-01-05T09:24:15.303Z,11.79
2023-01-05T09:26:42.844Z,11.33
2023-01-05T09:29:11.012Z,10.65
2023-01-05T09:31:40.666Z,11.12
2023-01-05T09:34:07.586Z,11.03
2023-01-05T09:36:34.470Z,11.54
2023-01-05T09:39:01.440Z,11.06
2023-01-05T09:41:33.453Z,11.41
2023-01-05T09:44:08.541Z,11.30
2023-01-05T09:46:39.272Z,11.74
2023-01-05T09:49:08.009Z,12.42
2023-01-05T09:51:36.141Z,12.29
2023-01-05T09:54:03.472Z,12.84
2023-01-05T09:59:45.837Z,11.77
2023-01-05T10:02:28.003Z,11.95
2023-01-05T10:04:55.857Z,11.74
2023-01-05T10:07:25.622Z,11.73
2023-01-05T10:09:53.904Z,11.56
2023-01-05T10:13:06.420Z,11.70
2023-01-05T10:15:42.812Z,11.83
2023-01-05T10:18:12.287Z,11.43
2023-01-05T10:21:02.563Z,11.64
2023-01-05T10:23:40.103Z,11.45
2023-01-05T10:26:25.483Z,10.92
2023-01-05T10:29:00.539Z,10.97
2023-01-05T10:31:48.936Z,10.89
2023-01-05T10:34:54.965Z,11.27
2023-01-05T10:37:35.403Z,11.34
2023-01-05T10:40:05.025Z,11.46
2023-01-05T10:42:46.562Z,11.69
2023-01-05T10:45:18.469Z,11.44
2023-01-05T10:47:46.435Z,11.76
2023-01-05T10:50:36.363Z,11.94
2023-01-05T10:53:24.643Z,11.98
2023-01-05T10:55:57.617Z,12.14
2023-01-05T10:58:29.935Z,11.84
2023-01-05T11:01:03.991Z,11.66
2023-01-05T11:04:14.943Z,11.47
2023-01-05T11:06:25.812Z,11.93
2023-01-05T11:08:52.813Z,12.40
2023-01-05T11:11:25.352Z,12.70
2023-01-05T11:13:59.093Z,12.20
2023-01-05T11:16:34.317Z,11.78
2023-01-05T11:19:04.364Z,11.69
2023-01-05T11:21:38.009Z,11.75
2023-01-05T11:24:05.628Z,11.64
2023-01-05T11:26:39.413Z,11.64
2023-01-05T11:29:09.234Z,11.75
2023-01-05T11:31:58.843Z,12.24
2023-01-05T11:34:48.085Z,12.48
2023-01-05T11:37:27.807Z,12.78
2023-01-05T11:40:00.166Z,13.23
2023-01-05T11:42:27.013Z,13.53
2023-01-05T11:45:22.487Z,13.56
2023-01-05T11:48:05.618Z,13.77
2023-01-05T11:50:42.553Z,14.05
2023-01-05T11:53:22.138Z,13.81
2023-01-05T11:56:01.026Z,14.48
2023-01-05T11:58:33.626Z,15.08
2023-01-05T12:01:42.361Z,15.13
2023-01-05T12:04:25.103Z,15.41
2023-01-05T12:06:55.348Z,15.63
2023-01-05T12:09:39.709Z,15.42
2023-01-05T12:12:15.652Z,15.75
2023-01-05T12:15:04.795Z,16.38
2023-01-05T12:18:08.458Z,15.01
2023-01-05T12:20:54.455Z,13.69
2023-01-05T12:23:30.285Z,12.45
2023-01-05T12:26:45.127Z,12.83
2023-01-05T12:34:01.432Z,13.17
2023-01-05T12:36:24.381Z,12.72
2023-01-05T12:39:01.717Z,11.91
2023-01-05T12:41:46.415Z,12.18
2023-01-05T12:44:32.089Z,11.88
2023-01-05T12:47:30.036Z,12.63
2023-01-05T12:50:21.373Z,12.27
2023-01-05T12:53:14.020Z,12.18
2023-01-05T12:55:45.702Z,12.42
2023-01-05T12:58:22.828Z,12.60
2023-01-05T13:00:59.232Z,12.52
2023-01-05T13:03:32.247Z,12.56
2023-01-05T13:06:08.810Z,12.53
2023-01-05T13:08:43.133Z,12.93
2023-01-05T13:11:26.900Z,12.72
2023-01-05T13:14:06.533Z,12.95
2023-01-05T13:16:39.688Z,12.37
2023-01-05T13:19:13.033Z,11.95
2023-01-05T13:21:42.754Z,12.64
2023-01-05T13:24:13.589Z,12.21
2023-01-05T13:26:40.831Z,12.57
2023-01-05T13:29:25.004Z,12.18
2023-01-05T13:32:06.280Z,13.03
2023-01-05T13:34:38.915Z,13.38
2023-01-05T13:37:24.522Z,14.15
2023-01-05T13:39:51.339Z,14.55
2023-01-05T13:42:33.579Z,15.51
2023-01-05T13:45:37.999Z,15.60
2023-01-05T13:48:13.087Z,14.88
2023-01-05T13:51:06.642Z,14.53
2023-01-05T13:53:37.925Z,13.44
2023-01-05T13:56:17.083Z,13.72
2023-01-05T13:59:03.136Z,13.58
2023-01-05T14:01:43.445Z,13.51
2023-01-05T14:04:22.497Z,13.43
2023-01-05T14:06:52.474Z,12.69
2023-01-05T14:09:46.155Z,12.40
2023-01-05T14:12:15.954Z,12.37
2023-01-05T14:15:06.155Z,12.31
2023-01-05T14:17:55.660Z,12.44
2023-01-05T14:20:49.182Z,11.99
2023-01-05T14:23:31.967Z,12.50
2023-01-05T14:26:00.914Z,13.36
2023-01-05T14:28:30.863Z,12.73
2023-01-05T14:31:37.227Z,12.41
2023-01-05T14:34:10.291Z,12.78
2023-01-05T14:36:39.441Z,13.26
2023-01-05T14:39:28.903Z,13.51
2023-01-05T14:42:00.212Z,13.91
2023-01-05T14:44:44.328Z,13.67
2023-01-05T14:47:11.918Z,14.59
2023-01-05T14:49:55.969Z,14.29
2023-01-05T14:52:55.133Z,13.95
2023-01-05T14:56:03.517Z,13.43
2023-01-05T14:58:36.312Z,13.01
2023-01-05T15:01:17.247Z,12.89
2023-01-05T15:03:57.886Z,12.53
2023-01-05T15:06:39.204Z,13.10
2023-01-05T15:09:23.071Z,13.23
2023-01-05T15:12:40.131Z,12.69
2023-01-05T15:15:31.413Z,12.90
2023-01-05T15:18:08.505Z,12.97
2023-01-05T15:20:51.284Z,14.05
2023-01-05T15:26:37.065Z,14.49
2023-01-05T15:29:31.876Z,13.95
2023-01-05T15:31:58.695Z,14.38
2023-01-05T15:34:37.816Z,15.49
2023-01-05T15:37:31.130Z,15.73
2023-01-05T15:40:07.681Z,15.21
2023-01-05T15:42:46.405Z,14.70
2023-01-05T15:45:23.744Z,14.15
2023-01-05T15:47:50.391Z,14.79
2023-01-05T15:50:40.814Z,16.06
2023-01-05T15:53:33.435Z,16.17
2023-01-05T15:56:00.881Z,16.41
2023-01-05T15:58:30.366Z,16.16
2023-01-05T16:01:11.111Z,15.73
2023-01-05T16:03:39.799Z,15.46
2023-01-05T16:06:16.986Z,15.79
2023-01-05T16:08:46.543Z,16.19
2023-01-05T16:11:17.884Z,15.70
2023-01-05T16:13:52.548Z,15.04
2023-01-05T16:16:50.132Z,14.45
2023-01-05T16:19:24.954Z,14.64
2023-01-05T16:22:05.520Z,14.55
2023-01-05T16:24:43.616Z,14.35
2023-01-05T16:27:13.647Z,14.44
2023-01-05T16:29:45.882Z,14.07
2023-01-05T16:32:54.910Z,14.26
2023-01-05T16:35:22.456Z,14.17
2023-01-05T16:38:11.181Z,13.38
2023-01-05T16:40:46.982Z,14.13
2023-01-05T16:44:16.998Z,14.05
2023-01-05T16:46:49.323Z,12.95
2023-01-05T16:49:22.298Z,13.68
2023-01-05T16:51:49.245Z,13.64
2023-01-05T16:54:38.389Z,13.84
2023-01-05T16:57:35.939Z,13.98
2023-01-05T17:00:04.454Z,13.46
2023-01-05T17:02:35.658Z,14.07
2023-01-05T17:05:02.571Z,13.41
2023-01-05T17:07:29.449Z,12.96
2023-01-05T17:09:56.388Z,13.29
2023-01-05T17:12:23.395Z,13.53
2023-01-05T17:14:50.665Z,13.59
2023-01-05T17:19:54.212Z,13.47
2023-01-05T17:22:21.457Z,13.17
2023-01-05T17:24:48.570Z,13.76
2023-01-05T17:27:15.481Z,13.25
2023-01-05T17:29:42.685Z,13.34
2023-01-05T17:32:11.603Z,13.11
2023-01-05T17:34:39.640Z,13.19
2023-01-05T17:37:07.526Z,12.76
2023-01-05T17:39:34.443Z,12.62
2023-01-05T17:42:22.745Z,11.98
2023-01-05T17:44:52.084Z,12.88
2023-01-05T17:47:19.120Z,13.00
2023-01-05T17:49:46.070Z,12.44
2023-01-05T17:52:14.009Z,12.69
2023-01-05T17:54:41.940Z,12.27
2023-01-05T17:57:12.357Z,12.73
2023-01-05T17:59:39.269Z,12.73
2023-01-05T18:02:06.172Z,13.01
2023-01-05T18:04:33.291Z,12.90
2023-01-05T18:07:01.140Z,13.17
2023-01-05T18:09:28.055Z,13.28
2023-01-05T18:11:55.070Z,12.92
2023-01-05T18:14:21.937Z,12.97
2023-01-05T18:16:48.770Z,12.96
2023-01-05T18:19:15.843Z,12.94
2023-01-05T18:24:10.461Z,13.57
2023-01-05T18:26:37.414Z,12.78
2023-01-05T18:29:04.390Z,12.99
2023-01-05T18:31:31.221Z,13.33
2023-01-05T18:33:58.067Z,13.04
2023-01-05T18:36:24.979Z,13.22
2023-01-05T18:38:51.868Z,13.11
2023-01-05T18:41:24.220Z,13.03
2023-01-05T18:43:51.086Z,13.10
2023-01-05T18:46:18.082Z,12.66
2023-01-05T18:48:49.461Z,12.80
2023-01-05T18:51:16.427Z,12.81
2023-01-05T18:53:43.470Z,12.87
2023-01-05T18:56:13.003Z,12.95
2023-01-05T18:58:39.859Z,12.83
2023-01-05T19:01:12.137Z,12.30
2023-01-05T19:03:39.386Z,12.47
2023-01-05T19:06:08.536Z,12.31
2023-01-05T19:08:35.774Z,12.20
2023-01-05T19:11:13.787Z,12.85
2023-01-05T19:13:41.092Z,12.63
2023-01-05T19:16:08.809Z,12.49
2023-01-05T19:18:35.736Z,12.01
2023-01-05T19:21:02.689Z,11.92
2023-01-05T19:23:30.070Z,12.10
2023-01-05T19:26:04.482Z,12.29
2023-01-05T19:28:32.154Z,12.01
2023-01-05T19:31:15.361Z,12.11
2023-01-05T19:33:42.623Z,11.96
2023-01-05T19:36:16.662Z,11.99
2023-01-05T19:38:44.863Z,12.15
2023-01-05T19:41:18.211Z,12.11
2023-01-05T19:43:48.434Z,11.77
2023-01-05T19:46:16.935Z,12.12
2023-01-05T19:48:44.779Z,12.03
2023-01-05T19:51:15.153Z,11.91
2023-01-05T19:53:43.075Z,12.03
2023-01-05T19:56:14.585Z,12.14
2023-01-05T19:58:42.774Z,11.97
2023-01-05T20:01:14.207Z,11.97
2023-01-05T20:03:43.675Z,12.02
2023-01-05T20:06:16.533Z,11.93
2023-01-05T20:08:43.430Z,11.93
2023-01-05T20:11:14.252Z,11.83
2023-01-05T20:13:41.380Z,11.76
2023-01-05T20:16:10.507Z,11.84
2023-01-05T20:18:38.454Z,12.01
2023-01-05T20:21:07.044Z,11.98
2023-01-05T20:23:39.011Z,11.47
2023-01-05T20:26:11.450Z,11.47
2023-01-05T20:28:38.964Z,11.83
2023-01-05T20:31:14.249Z,11.79
2023-01-05T20:33:41.129Z,11.75
2023-01-05T20:36:08.033Z,11.75
2023-01-05T20:38:34.899Z,12.04
2023-01-05T20:41:01.813Z,12.05
2023-01-05T20:43:28.677Z,11.99
2023-01-05T20:45:55.523Z,11.75
2023-01-05T20:48:22.388Z,12.04
2023-01-05T20:50:49.229Z,12.07
2023-01-05T20:53:15.932Z,11.84
2023-01-05T20:55:46.644Z,11.64
2023-01-05T20:58:13.486Z,11.95
2023-01-05T21:01:09.616Z,11.72
2023-01-05T21:03:28.196Z,11.55
2023-01-05T21:05:55.212Z,11.86
2023-01-05T21:08:22.090Z,11.77
2023-01-05T21:10:54.229Z,11.58
2023-01-05T21:13:31.598Z,11.78
2023-01-05T21:16:04.982Z,11.94
2023-01-05T21:18:33.611Z,11.54
2023-01-05T21:21:00.670Z,11.59
2023-01-05T21:23:27.504Z,12.05
2023-01-05T21:26:06.549Z,11.37
2023-01-05T21:28:36.243Z,11.50
2023-01-05T21:31:05.397Z,12.06
2023-01-05T21:33:32.746Z,11.38
2023-01-05T21:36:00.002Z,11.98
2023-01-05T21:38:26.919Z,11.76
2023-01-05T21:41:14.357Z,11.56
2023-01-05T21:43:41.282Z,11.46
2023-01-05T21:46:10.365Z,11.66
2023-01-05T21:48:37.272Z,11.98
2023-01-05T21:51:23.538Z,11.72
2023-01-05T21:54:09.031Z,11.44
2023-01-05T21:56:40.050Z,11.27
2023-01-05T21:59:10.429Z,11.87
2023-01-05T22:01:38.793Z,11.56
2023-01-05T22:04:05.907Z,11.94
2023-01-05T22:06:33.363Z,11.77
2023-01-05T22:09:00.296Z,12.21
2023-01-05T22:11:27.175Z,11.66
2023-01-05T22:13:54.023Z,11.48
2023-01-05T22:16:20.927Z,11.72
2023-01-05T22:18:48.027Z,12.14
2023-01-05T22:21:15.190Z,11.66
2023-01-05T22:23:42.040Z,11.61
2023-01-05T22:26:11.406Z,11.66
2023-01-05T22:28:41.273Z,11.68
2023-01-05T22:31:12.420Z,11.89
2023-01-05T22:33:46.486Z,11.58
2023-01-05T22:36:14.438Z,11.60
2023-01-05T22:38:43.087Z,11.90
2023-01-05T22:41:12.218Z,11.94
2023-01-05T22:43:40.998Z,11.67
2023-01-05T22:46:12.272Z,11.53
2023-01-05T22:48:41.293Z,11.51
2023-01-05T22:51:13.585Z,11.78
2023-01-05T22:53:41.181Z,12.29
2023-01-05T22:56:09.657Z,12.03
2023-01-05T22:58:36.928Z,11.83
2023-01-05T23:01:36.993Z,11.51
2023-01-05T23:04:05.592Z,11.69
2023-01-05T23:06:32.832Z,11.57
2023-01-05T23:08:59.885Z,11.84
2023-01-05T23:11:32.507Z,12.00
2023-01-05T23:14:01.395Z,11.75
2023-01-05T23:16:28.744Z,11.83
2023-01-05T23:18:56.021Z,12.25
2023-01-05T23:21:24.307Z,11.99
2023-01-05T23:23:52.245Z,12.19
2023-01-05T23:26:19.461Z,11.84
2023-01-05T23:28:46.634Z,11.69
2023-01-05T23:31:14.828Z,11.58
2023-01-05T23:33:42.559Z,11.95
2023-01-05T23:36:10.500Z,12.03
2023-01-05T23:38:37.883Z,11.63
2023-01-05T23:41:08.348Z,11.79
2023-01-05T23:43:37.923Z,11.78
2023-01-05T23:46:08.183Z,11.57
2023-01-05T23:48:36.207Z,12.03
2023-01-05T23:51:04.671Z,12.04
2023-01-05T23:53:31.745Z,11.96
2023-01-05T23:56:06.946Z,12.48
2023-01-05T23:58:33.929Z,12.08
